Shaw Air Force Base
KSSC : now visible

Airfield :











YOU CAN JOIN US ON...

 
LOGIN :

Register | Disclaimer

   EN    FR    IT 

 









Legend :    VFR   Marginal VFR   IFR   Intensive IFR   Very Intensive IFR
Visi :
Ceiling :
>= 8 km
>= 3000ft
5 to 8 km
1000 to 3000 ft
1500m to 5 km
500 to 1000 ft
800 to 1500m
200 to 500 ft
< 800m
< 200 ft
Symbols :   Thunderstorms  Fog  Heavy snow  Heavy precipitations  Wind > 20 kt






- Airport Elevation : 241 ft


KSSC - Shaw Air Force Base

CURRENT METAR :
  • 290056Z AUTO 15004KT 10SM CLR 23/19 A3002 RMK AO2 SLP166 T02270192 $

EXPIRED METARs :
  • 282356Z AUTO 14005KT 10SM CLR 24/19 A3002 RMK AO2 SLP166 T02360193 10270 20235 55004 $
  • 282256Z AUTO 14005KT 10SM CLR 24/19 A3002 RMK AO2 SLP166 T02390194 $

TAF TAF KSSC
Valid from the 28 at 23:00 until the 30 at 05:00 UTC


282300Z 2823/3005 13006KT 9999 BKN060 BKN100 QNH3003INS
TEMPO 2905/2906 8000 BR BKN010
BECMG 2917/2918 22010G15KT 8000 -RA SCT010 BKN030 BKN100 QNH2963INS TX27/2918Z TN21/2903Z
KZJX FIR / North America



MET'MAP, your aeronautical weather chart ! - Copyright ORBIFLY December 2007 - Disclaimer

ORBIFLY MET'MAP TEAM :

Programming & Development : Alexandra Zaïnal
Concept & original design : Baudouin d'Aumeries
Assistance for programming : Marc-Olivier Méhu
Technical & hardware support : Manuel Goepfert

Contact : metmap@orbifly.com




SOURCES & CREDITS :

   NOAA       Earth
Advisory